createdAt,value
2022-08-11T00:01:05.130Z,101911.84
2022-08-11T00:03:43.718Z,101904.97
2022-08-11T00:06:11.194Z,101902.88
2022-08-11T00:08:38.850Z,101899.94
2022-08-11T00:11:07.143Z,101908.41
2022-08-11T00:13:35.218Z,101894.88
2022-08-11T00:16:02.223Z,101895.44
2022-08-11T00:18:29.435Z,101902.28
2022-08-11T00:20:58.348Z,101898.97
2022-08-11T00:23:25.057Z,101899.34
2022-08-11T00:25:53.342Z,101898.09
2022-08-11T00:28:27.005Z,101904.06
2022-08-11T00:30:54.334Z,101901.72
2022-08-11T00:33:22.515Z,101905.47
2022-08-11T00:36:09.815Z,101898.63
2022-08-11T00:38:37.843Z,101893.78
2022-08-11T00:41:19.022Z,101905.34
2022-08-11T00:43:59.536Z,101902.19
2022-08-11T00:46:34.351Z,101906.09
2022-08-11T00:49:08.797Z,101899.44
2022-08-11T00:52:02.082Z,101899.63
2022-08-11T00:54:54.733Z,101905.78
2022-08-11T00:57:37.955Z,101909.69
2022-08-11T01:00:11.350Z,101908.03
2022-08-11T01:02:52.510Z,101909.44
2022-08-11T01:05:28.183Z,101909.81
2022-08-11T01:08:13.362Z,101905.84
2022-08-11T01:10:46.788Z,101910.97
2022-08-11T01:13:18.718Z,101901.59
2022-08-11T01:16:02.669Z,101910.47
2022-08-11T01:18:53.308Z,101907.69
2022-08-11T01:21:37.295Z,101910.13
2022-08-11T01:24:21.245Z,101904.66
2022-08-11T01:27:18.858Z,101906.06
2022-08-11T01:30:04.820Z,101908.28
2022-08-11T01:32:45.983Z,101896.22
2022-08-11T01:35:27.699Z,101906.34
2022-08-11T01:38:08.672Z,101907.28
2022-08-11T01:40:48.131Z,101905.78
2022-08-11T01:43:24.933Z,101905.88
2022-08-11T01:45:55.318Z,101908.13
2022-08-11T01:48:29.239Z,101911.84
2022-08-11T01:51:08.334Z,101917.41
2022-08-11T01:53:40.073Z,101916.94
2022-08-11T01:56:14.099Z,101917.69
2022-08-11T01:58:44.470Z,101912.47
2022-08-11T02:01:16.458Z,101914.34
2022-08-11T02:03:47.786Z,101915.19
2022-08-11T02:06:21.417Z,101912.84
2022-08-11T02:08:54.487Z,101913.44
2022-08-11T02:11:24.363Z,101915.28
2022-08-11T02:13:56.095Z,101926.59
2022-08-11T02:16:28.743Z,101920.56
2022-08-11T02:18:55.587Z,101915.91
2022-08-11T02:21:27.379Z,101910.72
2022-08-11T02:24:05.070Z,101909.03
2022-08-11T02:26:35.666Z,101916.47
2022-08-11T02:29:05.392Z,101915.19
2022-08-11T02:32:24.670Z,101907.28
2022-08-11T02:34:32.436Z,101904.94
2022-08-11T02:37:03.346Z,101906.81
2022-08-11T02:39:35.702Z,101906.16
2022-08-11T02:42:07.329Z,101903.44
2022-08-11T02:45:03.200Z,101902.53
2022-08-11T02:47:35.572Z,101901.50
2022-08-11T02:50:07.245Z,101904.56
2022-08-11T02:52:41.230Z,101902.03
2022-08-11T02:55:56.285Z,101894.53
2022-08-11T02:58:11.700Z,101903.81
2022-08-11T03:00:46.443Z,101903.16
2022-08-11T03:03:18.980Z,101899.63
2022-08-11T03:05:53.647Z,101904.31
2022-08-11T03:08:46.986Z,101901.16
2022-08-11T03:11:17.587Z,101906.38
2022-08-11T03:13:47.952Z,101912.94
2022-08-11T03:16:18.874Z,101904.56
2022-08-11T03:18:49.151Z,101895.38
2022-08-11T03:21:20.779Z,101897.78
2022-08-11T03:23:50.332Z,101898.97
2022-08-11T03:26:24.139Z,101903.16
2022-08-11T03:28:53.328Z,101896.47
2022-08-11T03:31:23.481Z,101900.19
2022-08-11T03:33:51.751Z,101898.50
2022-08-11T03:36:25.495Z,101905.25
2022-08-11T03:38:59.951Z,101904.59
2022-08-11T03:42:01.247Z,101902.91
2022-08-11T03:44:25.178Z,101900.97
2022-08-11T03:46:59.277Z,101896.59
2022-08-11T03:49:31.039Z,101898.63
2022-08-11T03:52:07.259Z,101901.50
2022-08-11T03:54:39.755Z,101900.03
2022-08-11T03:57:44.994Z,101901.38
2022-08-11T04:00:18.511Z,101898.03
2022-08-11T04:03:07.334Z,101896.91
2022-08-11T04:05:52.548Z,101893.72
2022-08-11T04:08:34.216Z,101893.06
2022-08-11T04:11:19.797Z,101897.78
2022-08-11T04:14:03.812Z,101892.41
2022-08-11T04:16:41.567Z,101891.94
2022-08-11T04:19:32.114Z,101889.91
2022-08-11T04:22:12.896Z,101886.56
2022-08-11T04:24:52.671Z,101887.09
2022-08-11T04:27:42.211Z,101887.25
2022-08-11T04:30:12.005Z,101889.78
2022-08-11T04:33:00.065Z,101895.34
2022-08-11T04:35:34.608Z,101892.63
2022-08-11T04:38:14.166Z,101887.94
2022-08-11T04:40:58.124Z,101890.63
2022-08-11T04:44:02.645Z,101896.84
2022-08-11T04:46:43.727Z,101889.78
2022-08-11T04:49:27.501Z,101893.13
2022-08-11T04:52:10.020Z,101898.16
2022-08-11T04:54:48.227Z,101899.47
2022-08-11T04:57:19.687Z,101904.66
2022-08-11T05:00:00.181Z,101899.13
2022-08-11T05:02:46.015Z,101903.13
2022-08-11T05:05:19.164Z,101902.91
2022-08-11T05:08:09.339Z,101907.09
2022-08-11T05:10:46.606Z,101911.13
2022-08-11T05:13:22.298Z,101910.13
2022-08-11T05:15:51.720Z,101909.09
2022-08-11T05:18:21.300Z,101903.16
2022-08-11T05:20:50.077Z,101903.00
2022-08-11T05:23:20.187Z,101900.63
2022-08-11T05:26:45.123Z,101907.94
2022-08-11T05:28:35.385Z,101914.81
2022-08-11T05:31:05.689Z,101910.56
2022-08-11T05:33:34.386Z,101909.38
2022-08-11T05:36:05.907Z,101911.88
2022-08-11T05:38:36.681Z,101911.34
2022-08-11T05:41:03.855Z,101916.00
2022-08-11T05:43:30.250Z,101913.78
2022-08-11T05:46:03.362Z,101910.91
2022-08-11T05:48:33.001Z,101916.06
2022-08-11T05:51:00.700Z,101914.03
2022-08-11T05:53:46.170Z,101915.97
2022-08-11T05:56:13.285Z,101915.91
2022-08-11T05:58:42.739Z,101916.38
2022-08-11T06:01:10.370Z,101913.94
2022-08-11T06:03:37.470Z,101914.25
2022-08-11T06:06:08.609Z,101913.22
2022-08-11T06:08:35.174Z,101921.56
2022-08-11T06:11:04.940Z,101912.78
2022-08-11T06:13:31.516Z,101917.78
2022-08-11T06:15:59.119Z,101915.19
2022-08-11T06:18:28.097Z,101916.84
2022-08-11T06:20:55.652Z,101916.75
2022-08-11T06:23:22.640Z,101916.84
2022-08-11T06:25:50.187Z,101912.09
2022-08-11T06:28:20.697Z,101913.41
2022-08-11T06:30:47.635Z,101919.50
2022-08-11T06:33:15.063Z,101918.16
2022-08-11T06:35:51.731Z,101912.84
2022-08-11T06:38:25.778Z,101921.66
2022-08-11T06:40:54.345Z,101918.84
2022-08-11T06:43:24.123Z,101923.94
2022-08-11T06:45:53.031Z,101925.66
2022-08-11T06:48:20.863Z,101923.91
2022-08-11T06:50:48.882Z,101918.38
2022-08-11T06:53:17.377Z,101922.41
2022-08-11T06:55:56.763Z,101923.13
2022-08-11T06:58:28.181Z,101921.97
2022-08-11T07:00:56.693Z,101923.31
2022-08-11T07:03:23.331Z,101923.00
2022-08-11T07:05:52.198Z,101935.16
2022-08-11T07:08:54.519Z,101932.94
2022-08-11T07:11:32.840Z,101931.16
2022-08-11T07:14:01.998Z,101927.47
2022-08-11T07:16:29.454Z,101924.41
2022-08-11T07:18:57.462Z,101924.25
2022-08-11T07:21:59.965Z,101926.81
2022-08-11T07:24:14.909Z,101928.13
2022-08-11T07:26:42.927Z,101931.50
2022-08-11T07:29:12.207Z,101926.13
2022-08-11T07:31:41.354Z,101929.28
2022-08-11T07:34:14.626Z,101933.91
2022-08-11T07:36:46.347Z,101932.28
2022-08-11T07:39:16.569Z,101931.88
2022-08-11T07:41:43.098Z,101934.63
2022-08-11T07:44:11.274Z,101929.88
2022-08-11T07:46:39.610Z,101932.81
2022-08-11T07:49:08.206Z,101923.88
2022-08-11T07:51:34.733Z,101927.00
2022-08-11T07:54:03.523Z,101923.44
2022-08-11T07:56:55.311Z,101927.41
2022-08-11T07:59:22.759Z,101918.06
2022-08-11T08:02:10.490Z,101926.38
2022-08-11T08:04:36.990Z,101927.63
2022-08-11T08:07:04.333Z,101924.09
2022-08-11T08:09:33.429Z,101923.44
2022-08-11T08:12:00.610Z,101923.81
2022-08-11T08:14:28.402Z,101928.78
2022-08-11T08:16:55.736Z,101925.63
2022-08-11T08:19:22.498Z,101919.97
2022-08-11T08:21:49.076Z,101928.50
2022-08-11T08:24:15.423Z,101927.19
2022-08-11T08:26:42.808Z,101928.63
2022-08-11T08:29:18.697Z,101927.34
2022-08-11T08:31:47.020Z,101930.19
2022-08-11T08:34:13.895Z,101931.16
2022-08-11T08:36:42.454Z,101928.41
2022-08-11T08:39:08.986Z,101930.47
2022-08-11T08:41:36.453Z,101927.50
2022-08-11T08:44:35.206Z,101927.72
2022-08-11T08:46:56.574Z,101928.50
2022-08-11T08:49:25.294Z,101928.06
2022-08-11T08:52:01.690Z,101929.88
2022-08-11T08:54:41.998Z,101919.13
2022-08-11T08:57:09.214Z,101916.31
2022-08-11T08:59:47.717Z,101909.47
2022-08-11T09:02:17.523Z,101920.59
2022-08-11T09:04:44.888Z,101917.97
2022-08-11T09:07:12.469Z,101912.16
2022-08-11T09:09:42.080Z,101913.47
2022-08-11T09:12:09.487Z,101921.97
2022-08-11T09:14:37.084Z,101916.81
2022-08-11T09:17:03.443Z,101914.69
2022-08-11T09:19:31.247Z,101905.09
2022-08-11T09:21:57.625Z,101912.81
2022-08-11T09:24:26.369Z,101906.75
2022-08-11T09:26:53.319Z,101908.19
2022-08-11T09:29:20.648Z,101903.22
2022-08-11T09:31:47.314Z,101902.66
2022-08-11T09:34:14.290Z,101908.22
2022-08-11T09:36:43.381Z,101902.47
2022-08-11T09:39:10.329Z,101906.53
2022-08-11T09:42:00.780Z,101906.91
2022-08-11T09:44:24.499Z,101901.66
2022-08-11T09:46:51.835Z,101899.28
2022-08-11T09:49:20.210Z,101898.72
2022-08-11T09:52:01.953Z,101898.72
2022-08-11T09:54:28.727Z,101898.22
2022-08-11T09:56:55.098Z,101901.19
2022-08-11T09:59:22.527Z,101897.53
2022-08-11T10:01:51.086Z,101892.06
2022-08-11T10:04:19.482Z,101888.47
2022-08-11T10:06:54.005Z,101894.16
2022-08-11T10:09:24.198Z,101885.34
2022-08-11T10:11:55.523Z,101889.78
2022-08-11T10:14:32.882Z,101887.38
2022-08-11T10:17:03.334Z,101882.53
2022-08-11T10:19:31.730Z,101882.69
2022-08-11T10:21:58.347Z,101883.78
2022-08-11T10:24:26.047Z,101879.34
2022-08-11T10:26:53.663Z,101871.91
2022-08-11T10:29:21.100Z,101870.47
2022-08-11T10:31:57.889Z,101871.09
2022-08-11T10:34:26.719Z,101869.59
2022-08-11T10:36:56.194Z,101864.03
2022-08-11T10:39:23.028Z,101867.16
2022-08-11T10:42:06.491Z,101861.00
2022-08-11T10:44:37.109Z,101866.34
2022-08-11T10:47:04.184Z,101854.63
2022-08-11T10:49:30.807Z,101854.63
2022-08-11T10:51:58.962Z,101852.22
2022-08-11T10:54:27.590Z,101852.34
2022-08-11T10:56:55.407Z,101842.50
2022-08-11T10:59:22.710Z,101840.09
2022-08-11T11:01:50.215Z,101844.66
2022-08-11T11:04:17.306Z,101844.28
2022-08-11T11:06:48.582Z,101838.22
2022-08-11T11:09:16.274Z,101836.44
2022-08-11T11:11:45.097Z,101840.84
2022-08-11T11:14:15.307Z,101831.09
2022-08-11T11:16:43.699Z,101834.72
2022-08-11T11:19:11.309Z,101834.59
2022-08-11T11:21:38.491Z,101829.72
2022-08-11T11:24:14.661Z,101832.56
2022-08-11T11:26:43.263Z,101825.53
2022-08-11T11:29:25.819Z,101814.63
2022-08-11T11:31:56.294Z,101820.66
2022-08-11T11:34:36.773Z,101823.19
2022-08-11T11:37:19.589Z,101819.66
2022-08-11T11:39:46.469Z,101821.66
2022-08-11T11:42:14.271Z,101821.19
2022-08-11T11:44:44.211Z,101818.78
2022-08-11T11:47:11.418Z,101813.31
2022-08-11T11:49:38.278Z,101811.66
2022-08-11T11:52:06.538Z,101812.75
2022-08-11T11:54:34.205Z,101807.34
2022-08-11T11:57:01.535Z,101808.47
2022-08-11T11:59:28.113Z,101801.38
2022-08-11T12:01:56.214Z,101790.94
2022-08-11T12:04:22.827Z,101793.97
2022-08-11T12:06:49.685Z,101797.28
2022-08-11T12:09:16.542Z,101790.72
2022-08-11T12:11:43.586Z,101779.22
2022-08-11T12:14:11.073Z,101783.91
2022-08-11T12:16:38.736Z,101782.81
2022-08-11T12:19:07.819Z,101782.03
2022-08-11T12:21:35.412Z,101770.47
2022-08-11T12:24:04.422Z,101780.38
2022-08-11T12:26:31.277Z,101774.06
2022-08-11T12:28:58.933Z,101774.69
2022-08-11T12:31:25.307Z,101768.66
2022-08-11T12:33:51.763Z,101759.59
2022-08-11T12:36:20.858Z,101765.34
2022-08-11T12:38:51.565Z,101754.94
2022-08-11T12:41:19.173Z,101753.00
2022-08-11T12:43:57.050Z,101756.59
2022-08-11T12:46:25.240Z,101750.53
2022-08-11T12:49:02.090Z,101750.03
2022-08-11T12:51:32.043Z,101748.09
2022-08-11T12:54:21.734Z,101742.59
2022-08-11T12:56:50.202Z,101743.44
2022-08-11T12:59:16.631Z,101740.13
2022-08-11T13:01:43.625Z,101737.13
2022-08-11T13:04:09.996Z,101732.72
2022-08-11T13:06:37.856Z,101725.28
2022-08-11T13:09:05.190Z,101729.44
2022-08-11T13:11:56.720Z,101723.13
2022-08-11T13:14:19.746Z,101720.91
2022-08-11T13:16:46.693Z,101725.00
2022-08-11T13:19:13.050Z,101713.50
2022-08-11T13:21:40.749Z,101715.13
2022-08-11T13:24:07.459Z,101717.88
2022-08-11T13:26:47.137Z,101710.75
2022-08-11T13:29:19.627Z,101707.16
2022-08-11T13:31:46.163Z,101707.41
2022-08-11T13:34:12.909Z,101699.97
2022-08-11T13:36:41.515Z,101706.78
2022-08-11T13:39:08.223Z,101701.53
2022-08-11T13:41:35.002Z,101705.38
2022-08-11T13:44:02.707Z,101700.13
2022-08-11T13:46:29.376Z,101691.34
2022-08-11T13:49:00.773Z,101693.00
2022-08-11T13:51:31.323Z,101685.06
2022-08-11T13:54:04.474Z,101694.56
2022-08-11T13:56:31.406Z,101676.72
2022-08-11T13:58:58.950Z,101677.78
2022-08-11T14:02:20.120Z,101681.91
2022-08-11T14:04:30.075Z,101676.16
2022-08-11T14:06:59.766Z,101678.59
2022-08-11T14:09:28.746Z,101667.91
2022-08-11T14:12:20.359Z,101675.59
2022-08-11T14:14:48.169Z,101670.66
2022-08-11T14:17:47.324Z,101671.44
2022-08-11T14:20:35.429Z,101666.78
2022-08-11T14:22:51.859Z,101671.72
2022-08-11T14:25:19.579Z,101670.59
2022-08-11T14:28:31.677Z,101671.72
2022-08-11T14:30:32.555Z,101672.81
2022-08-11T14:32:59.865Z,101671.16
2022-08-11T14:35:27.261Z,101661.03
2022-08-11T14:37:53.918Z,101662.63
2022-08-11T14:40:21.774Z,101663.19
2022-08-11T14:42:48.210Z,101667.03
2022-08-11T14:45:16.174Z,101653.06
2022-08-11T14:47:43.816Z,101656.59
2022-08-11T14:50:12.652Z,101656.03
2022-08-11T14:52:43.080Z,101652.19
2022-08-11T14:55:10.729Z,101651.63
2022-08-11T14:57:56.172Z,101645.38
2022-08-11T15:00:23.642Z,101650.03
2022-08-11T15:02:50.546Z,101640.72
2022-08-11T15:05:17.148Z,101641.25
2022-08-11T15:07:43.635Z,101636.03
2022-08-11T15:10:13.013Z,101640.94
2022-08-11T15:12:41.338Z,101628.84
2022-08-11T15:15:08.547Z,101625.84
2022-08-11T15:17:43.506Z,101624.19
2022-08-11T15:20:12.087Z,101624.97
2022-08-11T15:22:38.907Z,101618.41
2022-08-11T15:25:05.748Z,101622.53
2022-08-11T15:27:33.550Z,101614.56
2022-08-11T15:30:02.245Z,101615.63
2022-08-11T15:32:29.987Z,101609.66
2022-08-11T15:35:00.559Z,101614.03
2022-08-11T15:37:30.765Z,101609.13
2022-08-11T15:40:01.410Z,101604.75
2022-08-11T15:42:28.999Z,101600.59
2022-08-11T15:45:05.111Z,101601.69
2022-08-11T15:47:37.191Z,101597.31
2022-08-11T15:50:11.638Z,101601.13
2022-08-11T15:52:43.515Z,101597.31
2022-08-11T15:55:10.216Z,101595.97
2022-08-11T15:57:39.964Z,101592.38
2022-08-11T16:00:07.404Z,101593.44
2022-08-11T16:02:35.209Z,101595.63
2022-08-11T16:05:05.753Z,101593.13
2022-08-11T16:07:39.804Z,101586.00
2022-08-11T16:10:09.382Z,101584.31
2022-08-11T16:12:37.309Z,101584.34
2022-08-11T16:15:05.045Z,101576.44
2022-08-11T16:17:33.545Z,101580.00
2022-08-11T16:20:02.322Z,101580.53
2022-08-11T16:22:30.560Z,101582.44
2022-08-11T16:27:04.503Z,101575.31
2022-08-11T16:27:46.640Z,101569.53
2022-08-11T16:30:13.187Z,101570.63
2022-08-11T16:32:40.260Z,101569.22
2022-08-11T16:35:09.861Z,101568.59
2022-08-11T16:37:37.053Z,101561.47
2022-08-11T16:40:04.080Z,101552.75
2022-08-11T16:43:08.776Z,101567.81
2022-08-11T16:45:17.480Z,101564.25
2022-08-11T16:48:02.735Z,101566.16
2022-08-11T16:50:32.084Z,101557.38
2022-08-11T16:52:58.458Z,101557.44
2022-08-11T16:55:45.585Z,101562.91
2022-08-11T16:58:12.488Z,101564.53
2022-08-11T17:00:39.123Z,101553.25
2022-08-11T17:03:06.352Z,101558.72
2022-08-11T17:05:35.002Z,101554.84
2022-08-11T17:08:07.102Z,101548.81
2022-08-11T17:10:51.105Z,101546.91
2022-08-11T17:13:22.475Z,101546.06
2022-08-11T17:15:50.929Z,101547.94
2022-08-11T17:18:19.197Z,101543.53
2022-08-11T17:20:46.900Z,101544.66
2022-08-11T17:23:13.558Z,101542.94
2022-08-11T17:26:03.420Z,101540.19
2022-08-11T17:28:27.639Z,101542.34
2022-08-11T17:30:54.898Z,101535.22
2022-08-11T17:33:22.159Z,101538.78
2022-08-11T17:35:50.094Z,101539.03
2022-08-11T17:38:17.213Z,101543.38
2022-08-11T17:40:45.417Z,101541.44
2022-08-11T17:43:11.743Z,101544.44
2022-08-11T17:45:39.227Z,101545.66
2022-08-11T17:48:06.054Z,101543.25
2022-08-11T17:50:32.773Z,101546.28
2022-08-11T17:53:01.170Z,101541.69
2022-08-11T17:55:51.664Z,101535.38
2022-08-11T17:58:16.148Z,101543.25
2022-08-11T18:00:42.652Z,101535.78
2022-08-11T18:03:09.158Z,101535.16
2022-08-11T18:05:37.007Z,101539.72
2022-08-11T18:08:06.414Z,101538.28
2022-08-11T18:10:39.452Z,101547.31
2022-08-11T18:13:06.645Z,101548.41
2022-08-11T18:15:33.035Z,101547.47
2022-08-11T18:17:59.386Z,101540.34
2022-08-11T18:20:26.151Z,101546.78
2022-08-11T18:22:55.243Z,101553.31
2022-08-11T18:25:24.982Z,101547.78
2022-08-11T18:27:53.042Z,101546.34
2022-08-11T18:30:19.522Z,101549.22
2022-08-11T18:32:49.983Z,101554.84
2022-08-11T18:35:18.404Z,101554.16
2022-08-11T18:37:46.831Z,101557.00
2022-08-11T18:40:16.537Z,101562.34
2022-08-11T18:42:44.799Z,101560.81
2022-08-11T18:45:13.887Z,101568.03
2022-08-11T18:47:41.264Z,101560.22
2022-08-11T18:50:09.718Z,101561.03
2022-08-11T18:52:41.594Z,101567.16
2022-08-11T18:55:10.914Z,101565.94
2022-08-11T18:57:53.808Z,101563.31
2022-08-11T19:00:22.734Z,101565.88
2022-08-11T19:02:50.267Z,101572.56
2022-08-11T19:05:18.012Z,101570.44
2022-08-11T19:07:45.452Z,101579.50
2022-08-11T19:10:13.131Z,101576.34
2022-08-11T19:12:41.085Z,101577.00
2022-08-11T19:15:08.890Z,101581.78
2022-08-11T19:17:43.360Z,101582.75
2022-08-11T19:20:13.031Z,101578.28
2022-08-11T19:22:39.562Z,101585.50
2022-08-11T19:25:07.055Z,101586.69
2022-08-11T19:27:34.183Z,101593.13
2022-08-11T19:30:11.973Z,101596.19
2022-08-11T19:32:41.804Z,101590.31
2022-08-11T19:35:08.587Z,101591.97
2022-08-11T19:37:35.773Z,101601.34
2022-08-11T19:40:11.866Z,101592.69
2022-08-11T19:42:38.939Z,101602.06
2022-08-11T19:45:05.950Z,101601.34
2022-08-11T19:47:33.102Z,101597.06
2022-08-11T19:50:00.878Z,101599.06
2022-08-11T19:52:28.466Z,101598.38
2022-08-11T19:54:55.776Z,101601.78
2022-08-11T19:57:23.893Z,101603.56
2022-08-11T19:59:50.384Z,101612.66
2022-08-11T20:02:16.966Z,101599.16
2022-08-11T20:04:43.666Z,101608.00
2022-08-11T20:07:14.231Z,101606.47
2022-08-11T20:10:06.059Z,101606.94
2022-08-11T20:12:31.778Z,101612.59
2022-08-11T20:14:59.102Z,101601.59
2022-08-11T20:17:26.652Z,101607.47
2022-08-11T20:19:55.633Z,101610.06
2022-08-11T20:22:24.981Z,101606.75
2022-08-11T20:24:52.189Z,101605.53
2022-08-11T20:27:24.468Z,101609.75
2022-08-11T20:29:52.226Z,101611.91
2022-08-11T20:32:18.616Z,101605.28
2022-08-11T20:34:45.939Z,101608.44
2022-08-11T20:37:13.327Z,101606.44
2022-08-11T20:39:42.269Z,101607.72
2022-08-11T20:42:09.744Z,101610.03
2022-08-11T20:44:37.185Z,101609.69
2022-08-11T20:47:04.223Z,101607.44
2022-08-11T20:49:40.886Z,101599.72
2022-08-11T20:52:18.005Z,101611.88
2022-08-11T20:54:45.733Z,101610.91
2022-08-11T20:57:16.138Z,101611.38
2022-08-11T20:59:43.840Z,101613.97
2022-08-11T21:02:16.901Z,101607.09
2022-08-11T21:04:54.325Z,101610.47
2022-08-11T21:07:24.725Z,101613.63
2022-08-11T21:09:58.629Z,101615.13
2022-08-11T21:12:28.848Z,101612.25
2022-08-11T21:14:55.720Z,101612.13
2022-08-11T21:17:27.924Z,101614.00
2022-08-11T21:20:06.909Z,101609.84
2022-08-11T21:22:35.723Z,101616.78
2022-08-11T21:25:04.983Z,101614.75
2022-08-11T21:27:33.096Z,101612.69
2022-08-11T21:30:00.627Z,101610.47
2022-08-11T21:32:27.740Z,101618.22
2022-08-11T21:34:55.671Z,101616.16
2022-08-11T21:37:22.020Z,101613.09
2022-08-11T21:39:49.556Z,101606.00
2022-08-11T21:42:18.906Z,101615.63
2022-08-11T21:44:45.491Z,101615.22
2022-08-11T21:47:12.001Z,101607.78
2022-08-11T21:49:39.923Z,101610.72
2022-08-11T21:52:06.343Z,101602.41
2022-08-11T21:54:32.766Z,101611.59
2022-08-11T21:56:59.265Z,101608.28
2022-08-11T21:59:34.549Z,101608.69
2022-08-11T22:02:01.619Z,101608.69
2022-08-11T22:04:30.636Z,101603.72
2022-08-11T22:06:57.460Z,101608.16
2022-08-11T22:09:23.879Z,101603.16
2022-08-11T22:11:50.767Z,101603.16
2022-08-11T22:14:38.848Z,101607.16
2022-08-11T22:17:08.458Z,101612.19
2022-08-11T22:19:35.978Z,101606.16
2022-08-11T22:22:06.743Z,101609.31
2022-08-11T22:24:33.743Z,101612.03
2022-08-11T22:27:00.131Z,101603.50
2022-08-11T22:29:50.687Z,101610.41
2022-08-11T22:32:15.033Z,101611.06
2022-08-11T22:34:53.178Z,101610.66
2022-08-11T22:37:27.460Z,101609.25
2022-08-11T22:39:59.578Z,101607.59
2022-08-11T22:42:33.557Z,101605.53
2022-08-11T22:45:00.492Z,101601.38
2022-08-11T22:47:38.284Z,101599.34
2022-08-11T22:50:08.527Z,101598.72
2022-08-11T22:52:35.006Z,101604.56
2022-08-11T22:55:01.891Z,101600.25
2022-08-11T22:57:28.338Z,101603.38
2022-08-11T22:59:55.101Z,101607.97
2022-08-11T23:02:21.696Z,101605.91
2022-08-11T23:04:53.242Z,101603.63
2022-08-11T23:07:49.816Z,101606.75
2022-08-11T23:10:07.663Z,101599.28
2022-08-11T23:12:34.257Z,101598.88
2022-08-11T23:15:00.907Z,101602.22
2022-08-11T23:17:27.498Z,101601.03
2022-08-11T23:20:10.149Z,101606.44
2022-08-11T23:22:49.961Z,101599.00
2022-08-11T23:25:17.561Z,101602.13
2022-08-11T23:27:44.808Z,101606.28
2022-08-11T23:30:11.507Z,101604.25
2022-08-11T23:32:39.283Z,101601.13
2022-08-11T23:35:40.391Z,101606.13
2022-08-11T23:37:54.350Z,101601.38
2022-08-11T23:40:20.800Z,101604.50
2022-08-11T23:42:49.523Z,101603.03
2022-08-11T23:45:20.920Z,101597.47
2022-08-11T23:47:50.749Z,101595.38
2022-08-11T23:50:19.159Z,101592.06
2022-08-11T23:52:45.516Z,101599.97
2022-08-11T23:55:11.903Z,101601.84
2022-08-11T23:57:38.308Z,101604.13
